sensor_id;sensor_type;location;lat;lon;timestamp;temperature;humidity
6756;DHT22;3415;51.148;7.014;2023-03-01T00:00:52;-1.80;1.00
6756;DHT22;3415;51.148;7.014;2023-03-01T00:03:18;-1.80;1.00
6756;DHT22;3415;51.148;7.014;2023-03-01T00:05:47;-1.90;1.00
6756;DHT22;3415;51.148;7.014;2023-03-01T00:08:14;-1.90;1.00
6756;DHT22;3415;51.148;7.014;2023-03-01T00:10:40;-1.90;1.00
6756;DHT22;3415;51.148;7.014;2023-03-01T00:13:07;-1.90;1.00
6756;DHT22;3415;51.148;7.014;2023-03-01T00:15:38;-1.90;1.00
6756;DHT22;3415;51.148;7.014;2023-03-01T00:18:05;-1.90;1.00
6756;DHT22;3415;51.148;7.014;2023-03-01T00:20:32;-1.80;1.00
6756;DHT22;3415;51.148;7.014;2023-03-01T00:23:00;-1.90;1.00
6756;DHT22;3415;51.148;7.014;2023-03-01T00:25:27;-1.90;1.00
6756;DHT22;3415;51.148;7.014;2023-03-01T00:27:53;-2.00;1.00
6756;DHT22;3415;51.148;7.014;2023-03-01T00:30:20;-2.10;1.00
6756;DHT22;3415;51.148;7.014;2023-03-01T00:32:47;-2.10;1.00
6756;DHT22;3415;51.148;7.014;2023-03-01T00:35:14;-2.10;1.00
6756;DHT22;3415;51.148;7.014;2023-03-01T00:37:41;-2.10;1.00
6756;DHT22;3415;51.148;7.014;2023-03-01T00:40:10;-5.50;1.00
6756;DHT22;3415;51.148;7.014;2023-03-01T00:42:37;-2.30;1.00
6756;DHT22;3415;51.148;7.014;2023-03-01T00:45:05;-2.30;1.00
6756;DHT22;3415;51.148;7.014;2023-03-01T00:47:33;-2.30;1.00
6756;DHT22;3415;51.148;7.014;2023-03-01T00:52:27;-2.30;1.00
6756;DHT22;3415;51.148;7.014;2023-03-01T00:54:54;-2.30;1.00
6756;DHT22;3415;51.148;7.014;2023-03-01T00:57:22;-2.30;1.00
6756;DHT22;3415;51.148;7.014;2023-03-01T00:59:49;-2.30;1.00
6756;DHT22;3415;51.148;7.014;2023-03-01T01:02:17;-2.40;1.00
6756;DHT22;3415;51.148;7.014;2023-03-01T01:04:44;-2.40;1.00
6756;DHT22;3415;51.148;7.014;2023-03-01T01:07:11;-2.40;1.00
6756;DHT22;3415;51.148;7.014;2023-03-01T01:09:38;-2.40;1.00
6756;DHT22;3415;51.148;7.014;2023-03-01T01:12:05;-2.40;1.00
6756;DHT22;3415;51.148;7.014;2023-03-01T01:14:34;-2.40;1.00
6756;DHT22;3415;51.148;7.014;2023-03-01T01:17:01;-2.40;1.00
6756;DHT22;3415;51.148;7.014;2023-03-01T01:19:28;-2.40;1.00
6756;DHT22;3415;51.148;7.014;2023-03-01T01:21:54;-2.50;1.00
6756;DHT22;3415;51.148;7.014;2023-03-01T01:24:21;-2.50;1.00
6756;DHT22;3415;51.148;7.014;2023-03-01T01:26:48;-2.50;1.00
6756;DHT22;3415;51.148;7.014;2023-03-01T01:29:16;-2.50;1.00
6756;DHT22;3415;51.148;7.014;2023-03-01T01:31:44;-2.60;1.00
6756;DHT22;3415;51.148;7.014;2023-03-01T01:34:14;-2.60;1.00
6756;DHT22;3415;51.148;7.014;2023-03-01T01:36:41;-2.60;1.00
6756;DHT22;3415;51.148;7.014;2023-03-01T01:39:08;-2.60;1.00
6756;DHT22;3415;51.148;7.014;2023-03-01T01:41:39;-2.70;1.00
6756;DHT22;3415;51.148;7.014;2023-03-01T01:44:13;-2.70;1.00
6756;DHT22;3415;51.148;7.014;2023-03-01T01:46:41;-2.70;1.00
6756;DHT22;3415;51.148;7.014;2023-03-01T01:49:17;-2.80;1.00
6756;DHT22;3415;51.148;7.014;2023-03-01T01:51:47;-2.80;1.00
6756;DHT22;3415;51.148;7.014;2023-03-01T01:54:18;-2.80;1.00
6756;DHT22;3415;51.148;7.014;2023-03-01T01:56:50;-2.80;1.00
6756;DHT22;3415;51.148;7.014;2023-03-01T01:59:19;-2.80;1.00
6756;DHT22;3415;51.148;7.014;2023-03-01T02:01:50;-2.80;1.00
6756;DHT22;3415;51.148;7.014;2023-03-01T02:04:18;-2.80;1.00
6756;DHT22;3415;51.148;7.014;2023-03-01T02:06:51;-2.70;1.00
6756;DHT22;3415;51.148;7.014;2023-03-01T02:09:20;-2.70;1.00
6756;DHT22;3415;51.148;7.014;2023-03-01T02:11:49;-2.70;1.00
6756;DHT22;3415;51.148;7.014;2023-03-01T02:14:16;-2.80;1.00
6756;DHT22;3415;51.148;7.014;2023-03-01T02:16:44;-2.80;1.00
6756;DHT22;3415;51.148;7.014;2023-03-01T02:19:19;-2.80;1.00
6756;DHT22;3415;51.148;7.014;2023-03-01T02:21:56;-2.80;1.00
6756;DHT22;3415;51.148;7.014;2023-03-01T02:24:34;-2.80;1.00
6756;DHT22;3415;51.148;7.014;2023-03-01T02:27:04;-2.70;1.00
6756;DHT22;3415;51.148;7.014;2023-03-01T02:29:32;-2.60;1.00
6756;DHT22;3415;51.148;7.014;2023-03-01T02:32:00;-2.40;1.00
6756;DHT22;3415;51.148;7.014;2023-03-01T02:34:28;-2.20;1.00
6756;DHT22;3415;51.148;7.014;2023-03-01T02:36:59;-2.00;1.00
6756;DHT22;3415;51.148;7.014;2023-03-01T02:39:33;-1.80;1.00
6756;DHT22;3415;51.148;7.014;2023-03-01T02:42:01;-1.80;1.00
6756;DHT22;3415;51.148;7.014;2023-03-01T02:44:29;-1.80;1.00
6756;DHT22;3415;51.148;7.014;2023-03-01T02:46:58;-1.70;1.00
6756;DHT22;3415;51.148;7.014;2023-03-01T02:49:29;-1.60;1.00
6756;DHT22;3415;51.148;7.014;2023-03-01T02:52:07;-1.60;1.00
6756;DHT22;3415;51.148;7.014;2023-03-01T02:54:40;-1.70;1.00
6756;DHT22;3415;51.148;7.014;2023-03-01T02:57:08;-1.70;1.00
6756;DHT22;3415;51.148;7.014;2023-03-01T02:59:37;-1.80;1.00
6756;DHT22;3415;51.148;7.014;2023-03-01T03:02:08;-1.90;1.00
6756;DHT22;3415;51.148;7.014;2023-03-01T03:04:45;-2.00;1.00
6756;DHT22;3415;51.148;7.014;2023-03-01T03:07:12;-2.10;1.00
6756;DHT22;3415;51.148;7.014;2023-03-01T03:09:39;-2.10;1.00
6756;DHT22;3415;51.148;7.014;2023-03-01T03:12:06;-2.20;1.00
6756;DHT22;3415;51.148;7.014;2023-03-01T03:14:33;-2.20;1.00
6756;DHT22;3415;51.148;7.014;2023-03-01T03:17:00;-2.20;1.00
6756;DHT22;3415;51.148;7.014;2023-03-01T03:19:33;-2.20;1.00
6756;DHT22;3415;51.148;7.014;2023-03-01T03:22:00;-2.10;1.00
6756;DHT22;3415;51.148;7.014;2023-03-01T03:24:27;-2.10;1.00
6756;DHT22;3415;51.148;7.014;2023-03-01T03:27:03;-2.10;1.00
6756;DHT22;3415;51.148;7.014;2023-03-01T03:29:30;-2.10;1.00
6756;DHT22;3415;51.148;7.014;2023-03-01T03:31:57;-2.10;1.00
6756;DHT22;3415;51.148;7.014;2023-03-01T03:34:24;-2.10;1.00
6756;DHT22;3415;51.148;7.014;2023-03-01T03:36:54;-2.00;1.00
6756;DHT22;3415;51.148;7.014;2023-03-01T03:39:22;-2.10;1.00
6756;DHT22;3415;51.148;7.014;2023-03-01T03:41:49;-2.20;1.00
6756;DHT22;3415;51.148;7.014;2023-03-01T03:44:16;-2.20;1.00
6756;DHT22;3415;51.148;7.014;2023-03-01T03:46:42;-2.20;1.00
6756;DHT22;3415;51.148;7.014;2023-03-01T03:49:09;-2.30;1.00
6756;DHT22;3415;51.148;7.014;2023-03-01T03:54:04;-2.30;1.00
6756;DHT22;3415;51.148;7.014;2023-03-01T03:56:31;-2.20;1.00
6756;DHT22;3415;51.148;7.014;2023-03-01T03:58:58;-2.30;1.00
6756;DHT22;3415;51.148;7.014;2023-03-01T04:01:25;-2.40;1.00
6756;DHT22;3415;51.148;7.014;2023-03-01T04:03:52;-2.40;1.00
6756;DHT22;3415;51.148;7.014;2023-03-01T04:06:20;-2.50;1.00
6756;DHT22;3415;51.148;7.014;2023-03-01T04:08:47;-2.50;1.00
6756;DHT22;3415;51.148;7.014;2023-03-01T04:11:17;-2.40;1.00
6756;DHT22;3415;51.148;7.014;2023-03-01T04:13:56;-2.50;1.00
6756;DHT22;3415;51.148;7.014;2023-03-01T04:16:24;-2.50;1.00
6756;DHT22;3415;51.148;7.014;2023-03-01T04:18:51;-2.50;1.00
6756;DHT22;3415;51.148;7.014;2023-03-01T04:21:20;-2.50;1.00
6756;DHT22;3415;51.148;7.014;2023-03-01T04:23:47;-2.50;1.00
6756;DHT22;3415;51.148;7.014;2023-03-01T04:26:13;-2.50;1.00
6756;DHT22;3415;51.148;7.014;2023-03-01T04:28:42;-2.40;1.00
6756;DHT22;3415;51.148;7.014;2023-03-01T04:31:12;-2.40;1.00
6756;DHT22;3415;51.148;7.014;2023-03-01T04:33:41;-2.40;1.00
6756;DHT22;3415;51.148;7.014;2023-03-01T04:36:10;-2.30;1.00
6756;DHT22;3415;51.148;7.014;2023-03-01T04:38:38;-2.20;1.00
6756;DHT22;3415;51.148;7.014;2023-03-01T04:41:05;-2.20;1.00
6756;DHT22;3415;51.148;7.014;2023-03-01T04:43:32;-2.20;1.00
6756;DHT22;3415;51.148;7.014;2023-03-01T04:46:02;-2.20;1.00
6756;DHT22;3415;51.148;7.014;2023-03-01T04:48:30;-2.20;1.00
6756;DHT22;3415;51.148;7.014;2023-03-01T04:50:57;-2.10;1.00
6756;DHT22;3415;51.148;7.014;2023-03-01T04:53:24;-2.10;1.00
6756;DHT22;3415;51.148;7.014;2023-03-01T04:55:51;-2.00;1.00
6756;DHT22;3415;51.148;7.014;2023-03-01T04:58:20;-2.00;1.00
6756;DHT22;3415;51.148;7.014;2023-03-01T05:00:46;-2.00;1.00
6756;DHT22;3415;51.148;7.014;2023-03-01T05:03:15;-2.00;1.00
6756;DHT22;3415;51.148;7.014;2023-03-01T05:05:45;-1.90;1.00
6756;DHT22;3415;51.148;7.014;2023-03-01T05:08:12;-1.90;1.00
6756;DHT22;3415;51.148;7.014;2023-03-01T05:10:44;-2.00;1.00
6756;DHT22;3415;51.148;7.014;2023-03-01T05:13:12;-1.80;1.00
6756;DHT22;3415;51.148;7.014;2023-03-01T05:15:40;-1.80;1.00
6756;DHT22;3415;51.148;7.014;2023-03-01T05:18:07;-1.70;1.00
6756;DHT22;3415;51.148;7.014;2023-03-01T05:20:38;-1.60;1.00
6756;DHT22;3415;51.148;7.014;2023-03-01T05:23:05;-1.60;1.00
6756;DHT22;3415;51.148;7.014;2023-03-01T05:25:33;-1.60;1.00
6756;DHT22;3415;51.148;7.014;2023-03-01T05:28:00;-1.50;1.00
6756;DHT22;3415;51.148;7.014;2023-03-01T05:30:30;-1.60;1.00
6756;DHT22;3415;51.148;7.014;2023-03-01T05:32:58;-1.60;1.00
6756;DHT22;3415;51.148;7.014;2023-03-01T05:35:25;-1.50;1.00
6756;DHT22;3415;51.148;7.014;2023-03-01T05:37:53;-1.60;1.00
6756;DHT22;3415;51.148;7.014;2023-03-01T05:40:22;-1.60;1.00
6756;DHT22;3415;51.148;7.014;2023-03-01T05:42:52;-1.60;1.00
6756;DHT22;3415;51.148;7.014;2023-03-01T05:45:20;-1.50;1.00
6756;DHT22;3415;51.148;7.014;2023-03-01T05:47:47;-1.50;1.00
6756;DHT22;3415;51.148;7.014;2023-03-01T05:50:17;-1.50;1.00
6756;DHT22;3415;51.148;7.014;2023-03-01T05:52:46;-1.50;1.00
6756;DHT22;3415;51.148;7.014;2023-03-01T05:55:16;-1.50;1.00
6756;DHT22;3415;51.148;7.014;2023-03-01T05:57:43;-1.50;1.00
6756;DHT22;3415;51.148;7.014;2023-03-01T06:00:11;-1.40;1.00
6756;DHT22;3415;51.148;7.014;2023-03-01T06:02:39;-1.30;1.00
6756;DHT22;3415;51.148;7.014;2023-03-01T06:05:07;-1.30;1.00
6756;DHT22;3415;51.148;7.014;2023-03-01T06:07:34;-1.20;1.00
6756;DHT22;3415;51.148;7.014;2023-03-01T06:10:01;-1.30;1.00
6756;DHT22;3415;51.148;7.014;2023-03-01T06:12:32;-1.20;1.00
6756;DHT22;3415;51.148;7.014;2023-03-01T06:14:59;-1.20;1.00
6756;DHT22;3415;51.148;7.014;2023-03-01T06:17:29;-1.20;1.00
6756;DHT22;3415;51.148;7.014;2023-03-01T06:19:56;-1.10;1.00
6756;DHT22;3415;51.148;7.014;2023-03-01T06:22:23;-1.20;1.00
6756;DHT22;3415;51.148;7.014;2023-03-01T06:24:50;-1.20;1.00
6756;DHT22;3415;51.148;7.014;2023-03-01T06:27:17;-1.20;1.00
6756;DHT22;3415;51.148;7.014;2023-03-01T06:29:45;-1.20;1.00
6756;DHT22;3415;51.148;7.014;2023-03-01T06:32:11;-1.10;1.00
6756;DHT22;3415;51.148;7.014;2023-03-01T06:34:38;-1.20;1.00
6756;DHT22;3415;51.148;7.014;2023-03-01T06:37:06;-1.20;1.00
6756;DHT22;3415;51.148;7.014;2023-03-01T06:39:33;-1.20;1.00
6756;DHT22;3415;51.148;7.014;2023-03-01T06:42:00;-1.10;1.00
6756;DHT22;3415;51.148;7.014;2023-03-01T06:46:55;-1.10;1.00
6756;DHT22;3415;51.148;7.014;2023-03-01T06:49:22;-1.10;1.00
6756;DHT22;3415;51.148;7.014;2023-03-01T06:51:49;-0.90;1.00
6756;DHT22;3415;51.148;7.014;2023-03-01T06:54:16;-0.90;1.00
6756;DHT22;3415;51.148;7.014;2023-03-01T06:56:43;-0.90;1.00
6756;DHT22;3415;51.148;7.014;2023-03-01T06:59:12;-0.80;1.00
6756;DHT22;3415;51.148;7.014;2023-03-01T07:04:08;-0.80;1.00
6756;DHT22;3415;51.148;7.014;2023-03-01T07:06:34;-0.70;1.00
6756;DHT22;3415;51.148;7.014;2023-03-01T07:09:01;-0.70;1.00
6756;DHT22;3415;51.148;7.014;2023-03-01T07:11:28;-0.60;1.00
6756;DHT22;3415;51.148;7.014;2023-03-01T07:13:55;-0.60;1.00
6756;DHT22;3415;51.148;7.014;2023-03-01T07:16:22;-0.50;1.00
6756;DHT22;3415;51.148;7.014;2023-03-01T07:18:49;-0.40;1.00
6756;DHT22;3415;51.148;7.014;2023-03-01T07:21:17;-0.30;1.00
6756;DHT22;3415;51.148;7.014;2023-03-01T07:23:44;-0.30;1.00
6756;DHT22;3415;51.148;7.014;2023-03-01T07:26:13;-0.20;1.00
6756;DHT22;3415;51.148;7.014;2023-03-01T07:28:40;-0.10;1.00
6756;DHT22;3415;51.148;7.014;2023-03-01T07:31:07;-0.10;1.00
6756;DHT22;3415;51.148;7.014;2023-03-01T07:33:34;0.00;1.00
6756;DHT22;3415;51.148;7.014;2023-03-01T07:36:02;0.20;1.00
6756;DHT22;3415;51.148;7.014;2023-03-01T07:38:30;0.20;1.00
6756;DHT22;3415;51.148;7.014;2023-03-01T07:40:58;0.50;1.00
6756;DHT22;3415;51.148;7.014;2023-03-01T07:43:26;0.30;1.00
6756;DHT22;3415;51.148;7.014;2023-03-01T07:45:53;0.40;1.00
6756;DHT22;3415;51.148;7.014;2023-03-01T07:48:20;0.40;1.00
6756;DHT22;3415;51.148;7.014;2023-03-01T07:50:46;0.50;1.00
6756;DHT22;3415;51.148;7.014;2023-03-01T07:53:13;0.60;1.00
6756;DHT22;3415;51.148;7.014;2023-03-01T07:55:42;0.70;1.00
6756;DHT22;3415;51.148;7.014;2023-03-01T07:58:09;0.70;1.00
6756;DHT22;3415;51.148;7.014;2023-03-01T08:00:36;0.90;1.00
6756;DHT22;3415;51.148;7.014;2023-03-01T08:03:03;0.90;1.00
6756;DHT22;3415;51.148;7.014;2023-03-01T08:05:30;1.00;1.00
6756;DHT22;3415;51.148;7.014;2023-03-01T08:10:24;1.50;1.00
6756;DHT22;3415;51.148;7.014;2023-03-01T08:12:52;1.50;1.00
6756;DHT22;3415;51.148;7.014;2023-03-01T08:15:19;1.70;1.00
6756;DHT22;3415;51.148;7.014;2023-03-01T08:17:49;2.00;1.00
6756;DHT22;3415;51.148;7.014;2023-03-01T08:20:17;3.20;99.90
6756;DHT22;3415;51.148;7.014;2023-03-01T08:22:44;3.20;1.00
6756;DHT22;3415;51.148;7.014;2023-03-01T08:25:11;4.70;99.90
6756;DHT22;3415;51.148;7.014;2023-03-01T08:27:38;6.10;99.90
6756;DHT22;3415;51.148;7.014;2023-03-01T08:30:08;7.60;99.90
6756;DHT22;3415;51.148;7.014;2023-03-01T08:32:38;8.60;99.90
6756;DHT22;3415;51.148;7.014;2023-03-01T08:35:06;9.70;99.90
6756;DHT22;3415;51.148;7.014;2023-03-01T08:37:33;9.40;99.90
6756;DHT22;3415;51.148;7.014;2023-03-01T08:40:00;8.70;99.90
6756;DHT22;3415;51.148;7.014;2023-03-01T08:42:28;8.00;99.90
6756;DHT22;3415;51.148;7.014;2023-03-01T08:44:55;7.10;99.90
6756;DHT22;3415;51.148;7.014;2023-03-01T08:47:23;7.40;99.90
6756;DHT22;3415;51.148;7.014;2023-03-01T08:49:51;8.30;99.90
6756;DHT22;3415;51.148;7.014;2023-03-01T08:52:18;10.30;99.90
6756;DHT22;3415;51.148;7.014;2023-03-01T08:54:47;11.50;99.90
6756;DHT22;3415;51.148;7.014;2023-03-01T08:57:14;12.40;99.90
6756;DHT22;3415;51.148;7.014;2023-03-01T08:59:41;13.60;99.90
6756;DHT22;3415;51.148;7.014;2023-03-01T09:02:12;14.10;99.90
6756;DHT22;3415;51.148;7.014;2023-03-01T09:04:40;14.40;99.90
6756;DHT22;3415;51.148;7.014;2023-03-01T09:07:08;14.50;99.90
6756;DHT22;3415;51.148;7.014;2023-03-01T09:09:36;14.30;99.90
6756;DHT22;3415;51.148;7.014;2023-03-01T09:12:04;15.50;99.90
6756;DHT22;3415;51.148;7.014;2023-03-01T09:14:31;15.20;99.90
6756;DHT22;3415;51.148;7.014;2023-03-01T09:16:58;14.50;99.90
6756;DHT22;3415;51.148;7.014;2023-03-01T09:19:28;12.80;99.90
6756;DHT22;3415;51.148;7.014;2023-03-01T09:21:56;12.60;99.90
6756;DHT22;3415;51.148;7.014;2023-03-01T09:24:24;13.70;99.90
6756;DHT22;3415;51.148;7.014;2023-03-01T09:26:54;14.60;99.90
6756;DHT22;3415;51.148;7.014;2023-03-01T09:29:22;14.70;99.90
6756;DHT22;3415;51.148;7.014;2023-03-01T09:31:49;15.30;99.90
6756;DHT22;3415;51.148;7.014;2023-03-01T09:34:16;16.50;99.90
6756;DHT22;3415;51.148;7.014;2023-03-01T09:36:48;17.90;99.90
6756;DHT22;3415;51.148;7.014;2023-03-01T09:39:17;17.90;99.90
6756;DHT22;3415;51.148;7.014;2023-03-01T09:42:00;17.40;99.90
6756;DHT22;3415;51.148;7.014;2023-03-01T09:44:33;15.80;99.90
6756;DHT22;3415;51.148;7.014;2023-03-01T09:47:02;15.10;99.90
6756;DHT22;3415;51.148;7.014;2023-03-01T09:49:31;16.50;99.90
6756;DHT22;3415;51.148;7.014;2023-03-01T09:52:03;18.00;99.90
6756;DHT22;3415;51.148;7.014;2023-03-01T09:54:34;18.80;99.90
6756;DHT22;3415;51.148;7.014;2023-03-01T09:57:17;19.70;99.90
6756;DHT22;3415;51.148;7.014;2023-03-01T09:59:59;18.70;99.90
6756;DHT22;3415;51.148;7.014;2023-03-01T10:02:37;19.90;99.90
6756;DHT22;3415;51.148;7.014;2023-03-01T10:05:15;19.40;99.90
6756;DHT22;3415;51.148;7.014;2023-03-01T10:07:52;18.10;99.90
6756;DHT22;3415;51.148;7.014;2023-03-01T10:10:27;19.60;99.90
6756;DHT22;3415;51.148;7.014;2023-03-01T10:12:56;18.80;99.90
6756;DHT22;3415;51.148;7.014;2023-03-01T10:15:30;17.60;99.90
6756;DHT22;3415;51.148;7.014;2023-03-01T10:18:03;18.50;99.90
6756;DHT22;3415;51.148;7.014;2023-03-01T10:20:41;18.40;99.90
6756;DHT22;3415;51.148;7.014;2023-03-01T10:23:10;19.20;99.90
6756;DHT22;3415;51.148;7.014;2023-03-01T10:25:47;20.40;99.90
6756;DHT22;3415;51.148;7.014;2023-03-01T10:28:19;19.60;99.90
6756;DHT22;3415;51.148;7.014;2023-03-01T10:30:46;18.60;99.90
6756;DHT22;3415;51.148;7.014;2023-03-01T10:33:17;18.90;99.90
6756;DHT22;3415;51.148;7.014;2023-03-01T10:35:45;19.70;99.90
6756;DHT22;3415;51.148;7.014;2023-03-01T10:38:13;19.50;99.90
6756;DHT22;3415;51.148;7.014;2023-03-01T10:40:52;18.40;99.90
6756;DHT22;3415;51.148;7.014;2023-03-01T10:43:20;18.70;99.90
6756;DHT22;3415;51.148;7.014;2023-03-01T10:45:48;19.10;99.90
6756;DHT22;3415;51.148;7.014;2023-03-01T10:48:17;19.50;99.90
6756;DHT22;3415;51.148;7.014;2023-03-01T10:50:46;20.30;99.90
6756;DHT22;3415;51.148;7.014;2023-03-01T10:53:22;20.40;99.90
6756;DHT22;3415;51.148;7.014;2023-03-01T10:55:59;20.50;99.90
6756;DHT22;3415;51.148;7.014;2023-03-01T10:58:27;20.80;99.90
6756;DHT22;3415;51.148;7.014;2023-03-01T11:00:56;20.80;99.90
6756;DHT22;3415;51.148;7.014;2023-03-01T11:03:24;20.90;99.90
6756;DHT22;3415;51.148;7.014;2023-03-01T11:05:55;20.70;99.90
6756;DHT22;3415;51.148;7.014;2023-03-01T11:08:39;20.70;99.90
6756;DHT22;3415;51.148;7.014;2023-03-01T11:11:29;19.70;99.90
6756;DHT22;3415;51.148;7.014;2023-03-01T11:13:59;18.40;99.90
6756;DHT22;3415;51.148;7.014;2023-03-01T11:16:31;18.20;99.90
6756;DHT22;3415;51.148;7.014;2023-03-01T11:19:00;19.40;99.90
6756;DHT22;3415;51.148;7.014;2023-03-01T11:21:30;20.40;99.90
6756;DHT22;3415;51.148;7.014;2023-03-01T11:24:00;20.50;99.90
6756;DHT22;3415;51.148;7.014;2023-03-01T11:26:31;20.50;99.90
6756;DHT22;3415;51.148;7.014;2023-03-01T11:29:05;22.20;99.90
6756;DHT22;3415;51.148;7.014;2023-03-01T11:31:34;21.30;99.90
6756;DHT22;3415;51.148;7.014;2023-03-01T11:34:06;21.70;99.90
6756;DHT22;3415;51.148;7.014;2023-03-01T11:36:38;20.70;99.90
6756;DHT22;3415;51.148;7.014;2023-03-01T11:39:17;20.60;99.90
6756;DHT22;3415;51.148;7.014;2023-03-01T11:41:51;21.00;99.90
6756;DHT22;3415;51.148;7.014;2023-03-01T11:44:24;21.30;99.90
6756;DHT22;3415;51.148;7.014;2023-03-01T11:49:54;20.50;99.90
6756;DHT22;3415;51.148;7.014;2023-03-01T11:52:34;21.60;99.90
6756;DHT22;3415;51.148;7.014;2023-03-01T11:55:17;22.60;99.90
6756;DHT22;3415;51.148;7.014;2023-03-01T12:00:49;23.10;99.90
6756;DHT22;3415;51.148;7.014;2023-03-01T12:03:28;22.10;99.90
6756;DHT22;3415;51.148;7.014;2023-03-01T12:06:25;21.80;99.90
6756;DHT22;3415;51.148;7.014;2023-03-01T12:09:06;22.10;99.90
6756;DHT22;3415;51.148;7.014;2023-03-01T12:11:45;22.30;99.90
6756;DHT22;3415;51.148;7.014;2023-03-01T12:14:32;18.90;99.90
6756;DHT22;3415;51.148;7.014;2023-03-01T12:17:37;18.40;99.90
6756;DHT22;3415;51.148;7.014;2023-03-01T12:20:17;15.70;99.90
6756;DHT22;3415;51.148;7.014;2023-03-01T12:23:02;14.10;99.90
6756;DHT22;3415;51.148;7.014;2023-03-01T12:25:35;11.50;99.90
6756;DHT22;3415;51.148;7.014;2023-03-01T12:28:31;10.70;99.90
6756;DHT22;3415;51.148;7.014;2023-03-01T12:31:32;10.70;99.90
6756;DHT22;3415;51.148;7.014;2023-03-01T12:34:06;10.40;99.90
6756;DHT22;3415;51.148;7.014;2023-03-01T12:36:47;10.20;99.90
6756;DHT22;3415;51.148;7.014;2023-03-01T12:39:38;10.20;99.90
6756;DHT22;3415;51.148;7.014;2023-03-01T12:42:17;9.90;99.90
6756;DHT22;3415;51.148;7.014;2023-03-01T12:45:15;9.80;99.90
6756;DHT22;3415;51.148;7.014;2023-03-01T12:48:04;9.80;99.90
6756;DHT22;3415;51.148;7.014;2023-03-01T12:50:39;9.50;99.90
6756;DHT22;3415;51.148;7.014;2023-03-01T12:53:17;9.40;99.90
6756;DHT22;3415;51.148;7.014;2023-03-01T12:55:46;9.00;99.90
6756;DHT22;3415;51.148;7.014;2023-03-01T12:58:23;9.00;99.90
6756;DHT22;3415;51.148;7.014;2023-03-01T13:01:02;8.70;99.90
6756;DHT22;3415;51.148;7.014;2023-03-01T13:03:53;8.60;99.90
6756;DHT22;3415;51.148;7.014;2023-03-01T13:06:28;8.80;99.90
6756;DHT22;3415;51.148;7.014;2023-03-01T13:09:02;8.90;99.90
6756;DHT22;3415;51.148;7.014;2023-03-01T13:11:35;8.80;99.90
6756;DHT22;3415;51.148;7.014;2023-03-01T13:14:36;8.60;99.90
6756;DHT22;3415;51.148;7.014;2023-03-01T13:17:04;8.60;99.90
6756;DHT22;3415;51.148;7.014;2023-03-01T13:19:32;8.40;99.90
6756;DHT22;3415;51.148;7.014;2023-03-01T13:22:29;8.50;99.90
6756;DHT22;3415;51.148;7.014;2023-03-01T13:25:14;8.40;99.90
6756;DHT22;3415;51.148;7.014;2023-03-01T13:27:41;8.10;99.90
6756;DHT22;3415;51.148;7.014;2023-03-01T13:30:37;8.10;99.90
6756;DHT22;3415;51.148;7.014;2023-03-01T13:33:33;8.10;99.90
6756;DHT22;3415;51.148;7.014;2023-03-01T13:36:07;8.20;99.90
6756;DHT22;3415;51.148;7.014;2023-03-01T13:38:38;8.30;99.90
6756;DHT22;3415;51.148;7.014;2023-03-01T13:41:07;8.40;99.90
6756;DHT22;3415;51.148;7.014;2023-03-01T13:43:36;8.30;99.90
6756;DHT22;3415;51.148;7.014;2023-03-01T13:46:09;8.30;99.90
6756;DHT22;3415;51.148;7.014;2023-03-01T13:48:38;8.10;99.90
6756;DHT22;3415;51.148;7.014;2023-03-01T13:51:09;8.10;99.90
6756;DHT22;3415;51.148;7.014;2023-03-01T13:53:39;8.20;99.90
6756;DHT22;3415;51.148;7.014;2023-03-01T13:56:09;8.70;99.90
6756;DHT22;3415;51.148;7.014;2023-03-01T13:58:48;8.20;99.90
6756;DHT22;3415;51.148;7.014;2023-03-01T14:01:27;8.20;99.90
6756;DHT22;3415;51.148;7.014;2023-03-01T14:03:54;8.00;99.90
6756;DHT22;3415;51.148;7.014;2023-03-01T14:06:24;8.00;99.90
6756;DHT22;3415;51.148;7.014;2023-03-01T14:09:01;8.00;99.90
6756;DHT22;3415;51.148;7.014;2023-03-01T14:14:46;7.90;99.90
6756;DHT22;3415;51.148;7.014;2023-03-01T14:20:18;7.80;99.90
6756;DHT22;3415;51.148;7.014;2023-03-01T14:22:50;7.90;99.90
6756;DHT22;3415;51.148;7.014;2023-03-01T14:25:25;7.80;99.90
6756;DHT22;3415;51.148;7.014;2023-03-01T14:27:57;7.80;99.90
6756;DHT22;3415;51.148;7.014;2023-03-01T14:30:26;7.80;99.90
6756;DHT22;3415;51.148;7.014;2023-03-01T14:32:55;7.80;99.90
6756;DHT22;3415;51.148;7.014;2023-03-01T14:35:25;7.50;99.90
6756;DHT22;3415;51.148;7.014;2023-03-01T14:37:53;7.60;99.90
6756;DHT22;3415;51.148;7.014;2023-03-01T14:40:23;7.60;99.90
6756;DHT22;3415;51.148;7.014;2023-03-01T14:42:51;7.60;99.90
6756;DHT22;3415;51.148;7.014;2023-03-01T14:45:19;7.50;99.90
6756;DHT22;3415;51.148;7.014;2023-03-01T14:47:46;7.50;99.90
6756;DHT22;3415;51.148;7.014;2023-03-01T14:50:26;7.30;99.90
6756;DHT22;3415;51.148;7.014;2023-03-01T14:52:56;7.50;99.90
6756;DHT22;3415;51.148;7.014;2023-03-01T14:55:29;7.30;99.90
6756;DHT22;3415;51.148;7.014;2023-03-01T14:57:56;7.50;99.90
6756;DHT22;3415;51.148;7.014;2023-03-01T15:00:25;7.40;99.90
6756;DHT22;3415;51.148;7.014;2023-03-01T15:02:55;7.40;99.90
6756;DHT22;3415;51.148;7.014;2023-03-01T15:05:25;7.40;99.90
6756;DHT22;3415;51.148;7.014;2023-03-01T15:07:56;7.40;99.90
6756;DHT22;3415;51.148;7.014;2023-03-01T15:10:26;7.30;99.90
6756;DHT22;3415;51.148;7.014;2023-03-01T15:12:53;7.30;99.90
6756;DHT22;3415;51.148;7.014;2023-03-01T15:15:32;7.40;99.90
6756;DHT22;3415;51.148;7.014;2023-03-01T15:18:01;7.30;99.90
6756;DHT22;3415;51.148;7.014;2023-03-01T15:20:29;7.20;99.90
6756;DHT22;3415;51.148;7.014;2023-03-01T15:23:02;7.30;99.90
6756;DHT22;3415;51.148;7.014;2023-03-01T15:25:31;7.20;99.90
6756;DHT22;3415;51.148;7.014;2023-03-01T15:28:00;7.20;99.90
6756;DHT22;3415;51.148;7.014;2023-03-01T15:30:30;7.10;99.90
6756;DHT22;3415;51.148;7.014;2023-03-01T15:33:25;7.20;99.90
6756;DHT22;3415;51.148;7.014;2023-03-01T15:35:54;7.20;99.90
6756;DHT22;3415;51.148;7.014;2023-03-01T15:38:29;7.20;99.90
6756;DHT22;3415;51.148;7.014;2023-03-01T15:40:57;7.20;99.90
6756;DHT22;3415;51.148;7.014;2023-03-01T15:43:44;7.20;99.90
6756;DHT22;3415;51.148;7.014;2023-03-01T15:46:20;7.20;99.90
6756;DHT22;3415;51.148;7.014;2023-03-01T15:48:51;7.20;99.90
6756;DHT22;3415;51.148;7.014;2023-03-01T15:51:23;7.10;99.90
6756;DHT22;3415;51.148;7.014;2023-03-01T15:53:55;7.00;99.90
6756;DHT22;3415;51.148;7.014;2023-03-01T15:56:23;7.10;99.90
6756;DHT22;3415;51.148;7.014;2023-03-01T15:58:50;7.00;99.90
6756;DHT22;3415;51.148;7.014;2023-03-01T16:01:17;7.00;99.90
6756;DHT22;3415;51.148;7.014;2023-03-01T16:03:45;7.00;99.90
6756;DHT22;3415;51.148;7.014;2023-03-01T16:06:12;7.00;99.90
6756;DHT22;3415;51.148;7.014;2023-03-01T16:08:39;7.00;99.90
6756;DHT22;3415;51.148;7.014;2023-03-01T16:11:14;7.00;99.90
6756;DHT22;3415;51.148;7.014;2023-03-01T16:13:42;7.00;99.90
6756;DHT22;3415;51.148;7.014;2023-03-01T16:16:10;6.90;99.90
6756;DHT22;3415;51.148;7.014;2023-03-01T16:18:40;6.70;99.90
6756;DHT22;3415;51.148;7.014;2023-03-01T16:21:14;6.70;99.90
6756;DHT22;3415;51.148;7.014;2023-03-01T16:23:42;6.60;99.90
6756;DHT22;3415;51.148;7.014;2023-03-01T16:26:11;6.60;99.90
6756;DHT22;3415;51.148;7.014;2023-03-01T16:28:38;6.40;99.90
6756;DHT22;3415;51.148;7.014;2023-03-01T16:31:05;6.40;99.90
6756;DHT22;3415;51.148;7.014;2023-03-01T16:33:32;6.40;99.90
6756;DHT22;3415;51.148;7.014;2023-03-01T16:35:59;6.30;99.90
6756;DHT22;3415;51.148;7.014;2023-03-01T16:38:28;6.20;99.90
6756;DHT22;3415;51.148;7.014;2023-03-01T16:40:57;6.10;99.90
6756;DHT22;3415;51.148;7.014;2023-03-01T16:43:25;6.10;99.90
6756;DHT22;3415;51.148;7.014;2023-03-01T16:45:52;6.00;99.90
6756;DHT22;3415;51.148;7.014;2023-03-01T16:50:56;5.90;99.90
6756;DHT22;3415;51.148;7.014;2023-03-01T16:53:23;5.80;99.90
6756;DHT22;3415;51.148;7.014;2023-03-01T16:55:53;5.70;99.90
6756;DHT22;3415;51.148;7.014;2023-03-01T16:58:20;5.70;99.90
6756;DHT22;3415;51.148;7.014;2023-03-01T17:00:51;5.70;99.90
6756;DHT22;3415;51.148;7.014;2023-03-01T17:03:19;5.60;99.90